Halfway's Hourly Summary for Tuesday, July 10, 2018
Hour Temp
(f)
RH
(%)
Solar Rad.
(MJ/m2)
Rainfall
(in)
Wind
(mph)
7/10/2018 12:00 AM 72 51 0 0 5.79
7/10/2018 1:00 AM 69 68 0 0 2.87
7/10/2018 2:00 AM 68 68 0 0 3.43
7/10/2018 3:00 AM 67 71 0 0 2.93
7/10/2018 4:00 AM 66 78 0 0 1.91
7/10/2018 5:00 AM 66 77 0 0 1.13
7/10/2018 6:00 AM 65 79 0 0 0.01
7/10/2018 7:00 AM 64 83 0.02 0 0.17
7/10/2018 8:00 AM 66 76 0.36 0 2.15
7/10/2018 9:00 AM 73 60 1.04 0 2.68
7/10/2018 10:00 AM 78 51 1.77 0 2.15
7/10/2018 11:00 AM 81 43 2.46 0 2.92
7/10/2018 12:00 PM 82 43 3.03 0 4.18
7/10/2018 1:00 PM 84 38 3.12 0 5.81
7/10/2018 2:00 PM 85 38 2.86 0 6.16
7/10/2018 3:00 PM 86 36 2.96 0 6.4
7/10/2018 4:00 PM 86 36 1.75 0 6.73
7/10/2018 5:00 PM 87 33 2.21 0 7.02
7/10/2018 6:00 PM 88 31 2.11 0 8.1
7/10/2018 7:00 PM 87 32 1.43 0 9.5
7/10/2018 8:00 PM 87 33 0.94 0 10.75
7/10/2018 9:00 PM 84 35 0.22 0 9.77
7/10/2018 10:00 PM 80 43 0 0 8.87
7/10/2018 11:00 PM 76 49 0 0 5.62
Data Summary 76 52 26.28 0.00 4.88